Notl Queenston

*Note: All times are displayed in the local standard time of the station location.
**Rain - Equipment is designed to accurately record liquid precipitation; under conditions when precipitation is not in liquid form, the data displayed may not properly reflect rainfall values.

Date Max Temp
(°C)
Min Temp
(°C)
Avg Temp
(°C)
Rain (mm) Avg RH (%) Solar Rad (kJ/m2)
Sat, Feb 17, 2018 -1.0 -5.7 -2.8 0.0 67.8 3914.6
Fri, Feb 16, 2018 5.0 -5.3 0.1 0.2 79.7 5243.6
Thu, Feb 15, 2018 10.1 3.5 6.8 0.2 95.5 4809.3
Wed, Feb 14, 2018 5.3 -0.5 3.1 4.4 72.8 8819.4
Tue, Feb 13, 2018 -0.1 -16.2 -6.9 0.8 73.0 7385.5
Mon, Feb 12, 2018 -1.6 -8.6 -4.1 1.2 68.9 7726.7
Sun, Feb 11, 2018 1.0 -3.9 -1.6 6.4 92.6 1597.3
DateTime Avg Temp (°C) Rain (mm) RH (%) Solar Rad (kJ/m2)
Sun, Feb 18, 2018 04:00 -2.0 0.0 84.3 -
Sun, Feb 18, 2018 03:00 -1.4 0.0 82.8 -
Sun, Feb 18, 2018 02:00 -1.5 0.0 85.0 -
Sun, Feb 18, 2018 01:00 -1.7 0.0 86.3 -
Sun, Feb 18, 2018 00:00 -1.5 0.0 83.5 -
Sat, Feb 17, 2018 23:00 -1.3 0.0 76.8 -
Sat, Feb 17, 2018 22:00 -1.3 0.0 68.8 0.0
Sat, Feb 17, 2018 21:00 -1.5 0.0 66.0 0.0
Sat, Feb 17, 2018 20:00 -1.6 0.0 64.8 0.0
Sat, Feb 17, 2018 19:00 -1.3 0.0 59.3 -
Sat, Feb 17, 2018 18:00 -1.2 0.0 56.5 24.1
Sat, Feb 17, 2018 17:00 -1.1 0.0 55.5 92.3
Sat, Feb 17, 2018 16:00 -1.1 0.0 56.8 161.0
Sat, Feb 17, 2018 15:00 -1.1 0.0 56.5 362.6
Sat, Feb 17, 2018 14:00 -1.1 0.0 57.5 507.7
Sat, Feb 17, 2018 13:00 -1.1 0.0 59.3 561.6
Sat, Feb 17, 2018 12:00 -1.2 0.0 60.3 677.4
Sat, Feb 17, 2018 11:00 -1.8 0.0 62.3 650.6
Sat, Feb 17, 2018 10:00 -2.7 0.0 66.3 512.2
Sat, Feb 17, 2018 09:00 -4.0 0.0 70.8 302.7
Sat, Feb 17, 2018 08:00 -5.2 0.0 76.8 62.4
Sat, Feb 17, 2018 07:00 -5.2 0.0 75.8 -
Sat, Feb 17, 2018 06:00 -5.3 0.0 74.8 -
Sat, Feb 17, 2018 05:00 -5.3 0.0 77.5 0.0
Sat, Feb 17, 2018 04:00 -5.4 0.0 79.8 0.0
Sat, Feb 17, 2018 03:00 -5.5 0.0 75.8 -
Sat, Feb 17, 2018 02:00 -5.6 0.0 73.0 -
Sat, Feb 17, 2018 01:00 -5.3 0.0 73.0 -
Sat, Feb 17, 2018 00:00 -5.2 0.0 72.0 -
Fri, Feb 16, 2018 23:00 -5.1 0.0 73.3 -
Fri, Feb 16, 2018 22:00 -4.0 0.0 68.3 -
Fri, Feb 16, 2018 21:00 -3.7 0.0 64.5 -
Fri, Feb 16, 2018 20:00 -3.2 0.0 60.5 -
Fri, Feb 16, 2018 19:00 -2.9 0.0 60.5 -
Fri, Feb 16, 2018 18:00 -2.1 0.0 60.8 79.6
Fri, Feb 16, 2018 17:00 -0.7 0.0 60.3 274.3
Fri, Feb 16, 2018 16:00 0.4 0.0 61.5 535.8
Fri, Feb 16, 2018 15:00 1.7 0.0 60.0 1026.2
Fri, Feb 16, 2018 14:00 1.7 0.0 64.0 1242.2
Fri, Feb 16, 2018 13:00 2.0 0.0 68.5 1107.5
Fri, Feb 16, 2018 12:00 1.6 0.0 81.3 627.4
Fri, Feb 16, 2018 11:00 1.1 0.2 90.5 123.1
Fri, Feb 16, 2018 10:00 1.5 0.0 86.5 187.2
Fri, Feb 16, 2018 09:00 1.2 0.0 87.5 35.3
Fri, Feb 16, 2018 08:00 1.6 0.0 92.0 5.0
Fri, Feb 16, 2018 07:00 1.5 0.0 100.0 -
Fri, Feb 16, 2018 06:00 1.2 0.0 100.0 -
Fri, Feb 16, 2018 05:00 1.4 0.0 100.0 -


asterix Register now to access more data! asterix